sensor_id;sensor_type;location;lat;lon;timestamp;temperature;humidity
8420;DHT22;4247;48.550;8.822;2023-06-24T00:00:21;16.30;99.90
8420;DHT22;4247;48.550;8.822;2023-06-24T00:02:47;16.30;99.90
8420;DHT22;4247;48.550;8.822;2023-06-24T00:05:16;16.20;99.90
8420;DHT22;4247;48.550;8.822;2023-06-24T00:07:43;16.20;99.90
8420;DHT22;4247;48.550;8.822;2023-06-24T00:10:11;16.20;99.90
8420;DHT22;4247;48.550;8.822;2023-06-24T00:12:39;16.10;99.90
8420;DHT22;4247;48.550;8.822;2023-06-24T00:15:08;16.00;99.90
8420;DHT22;4247;48.550;8.822;2023-06-24T00:17:35;16.00;99.90
8420;DHT22;4247;48.550;8.822;2023-06-24T00:20:02;16.00;99.90
8420;DHT22;4247;48.550;8.822;2023-06-24T00:22:32;16.00;99.90
8420;DHT22;4247;48.550;8.822;2023-06-24T00:24:59;15.90;99.90
8420;DHT22;4247;48.550;8.822;2023-06-24T00:27:25;15.90;99.90
8420;DHT22;4247;48.550;8.822;2023-06-24T00:29:53;15.90;99.90
8420;DHT22;4247;48.550;8.822;2023-06-24T00:32:20;15.90;99.90
8420;DHT22;4247;48.550;8.822;2023-06-24T00:34:47;15.80;99.90
8420;DHT22;4247;48.550;8.822;2023-06-24T00:37:15;15.80;99.90
8420;DHT22;4247;48.550;8.822;2023-06-24T00:39:42;15.80;99.90
8420;DHT22;4247;48.550;8.822;2023-06-24T00:42:09;15.80;99.90
8420;DHT22;4247;48.550;8.822;2023-06-24T00:44:36;15.80;99.90
8420;DHT22;4247;48.550;8.822;2023-06-24T00:47:06;15.80;99.90
8420;DHT22;4247;48.550;8.822;2023-06-24T00:49:34;15.80;99.90
8420;DHT22;4247;48.550;8.822;2023-06-24T00:52:01;15.70;99.90
8420;DHT22;4247;48.550;8.822;2023-06-24T00:54:28;15.70;99.90
8420;DHT22;4247;48.550;8.822;2023-06-24T00:56:56;15.70;99.90
8420;DHT22;4247;48.550;8.822;2023-06-24T00:59:25;15.70;99.90
8420;DHT22;4247;48.550;8.822;2023-06-24T01:01:55;15.60;99.90
8420;DHT22;4247;48.550;8.822;2023-06-24T01:04:23;15.60;99.90
8420;DHT22;4247;48.550;8.822;2023-06-24T01:06:51;15.60;99.90
8420;DHT22;4247;48.550;8.822;2023-06-24T01:09:18;15.60;99.90
8420;DHT22;4247;48.550;8.822;2023-06-24T01:11:45;15.50;99.90
8420;DHT22;4247;48.550;8.822;2023-06-24T01:14:12;15.50;99.90
8420;DHT22;4247;48.550;8.822;2023-06-24T01:16:44;15.50;99.90
8420;DHT22;4247;48.550;8.822;2023-06-24T01:19:31;15.40;99.90
8420;DHT22;4247;48.550;8.822;2023-06-24T01:22:06;15.40;99.90
8420;DHT22;4247;48.550;8.822;2023-06-24T01:24:48;15.40;99.90
8420;DHT22;4247;48.550;8.822;2023-06-24T01:27:32;15.30;99.90
8420;DHT22;4247;48.550;8.822;2023-06-24T01:30:35;15.30;99.90
8420;DHT22;4247;48.550;8.822;2023-06-24T01:33:09;15.30;99.90
8420;DHT22;4247;48.550;8.822;2023-06-24T01:35:40;15.30;99.90
8420;DHT22;4247;48.550;8.822;2023-06-24T01:38:09;15.20;99.90
8420;DHT22;4247;48.550;8.822;2023-06-24T01:40:41;15.20;99.90
8420;DHT22;4247;48.550;8.822;2023-06-24T01:43:10;15.10;99.90
8420;DHT22;4247;48.550;8.822;2023-06-24T01:45:45;15.10;99.90
8420;DHT22;4247;48.550;8.822;2023-06-24T01:48:15;15.10;99.90
8420;DHT22;4247;48.550;8.822;2023-06-24T01:50:45;15.10;99.90
8420;DHT22;4247;48.550;8.822;2023-06-24T01:53:15;15.10;99.90
8420;DHT22;4247;48.550;8.822;2023-06-24T01:55:44;15.10;99.90
8420;DHT22;4247;48.550;8.822;2023-06-24T01:58:13;15.10;99.90
8420;DHT22;4247;48.550;8.822;2023-06-24T02:00:41;15.00;99.90
8420;DHT22;4247;48.550;8.822;2023-06-24T02:03:09;15.00;99.90
8420;DHT22;4247;48.550;8.822;2023-06-24T02:05:38;15.00;99.90
8420;DHT22;4247;48.550;8.822;2023-06-24T02:08:08;15.00;99.90
8420;DHT22;4247;48.550;8.822;2023-06-24T02:10:38;15.00;99.90
8420;DHT22;4247;48.550;8.822;2023-06-24T02:13:07;15.00;99.90
8420;DHT22;4247;48.550;8.822;2023-06-24T02:15:35;14.90;99.90
8420;DHT22;4247;48.550;8.822;2023-06-24T02:18:04;14.90;99.90
8420;DHT22;4247;48.550;8.822;2023-06-24T02:20:31;14.90;99.90
8420;DHT22;4247;48.550;8.822;2023-06-24T02:23:00;14.80;99.90
8420;DHT22;4247;48.550;8.822;2023-06-24T02:25:27;14.80;99.90
8420;DHT22;4247;48.550;8.822;2023-06-24T02:27:55;14.80;99.90
8420;DHT22;4247;48.550;8.822;2023-06-24T02:30:23;14.70;99.90
8420;DHT22;4247;48.550;8.822;2023-06-24T02:32:51;14.70;99.90
8420;DHT22;4247;48.550;8.822;2023-06-24T02:35:18;14.70;99.90
8420;DHT22;4247;48.550;8.822;2023-06-24T02:37:44;14.70;99.90
8420;DHT22;4247;48.550;8.822;2023-06-24T02:40:13;14.70;99.90
8420;DHT22;4247;48.550;8.822;2023-06-24T02:42:40;14.60;99.90
8420;DHT22;4247;48.550;8.822;2023-06-24T02:45:07;14.60;99.90
8420;DHT22;4247;48.550;8.822;2023-06-24T02:47:35;14.60;99.90
8420;DHT22;4247;48.550;8.822;2023-06-24T02:50:03;14.60;99.90
8420;DHT22;4247;48.550;8.822;2023-06-24T02:52:32;14.60;99.90
8420;DHT22;4247;48.550;8.822;2023-06-24T02:54:59;14.60;99.90
8420;DHT22;4247;48.550;8.822;2023-06-24T02:57:27;14.60;99.90
8420;DHT22;4247;48.550;8.822;2023-06-24T02:59:54;14.60;99.90
8420;DHT22;4247;48.550;8.822;2023-06-24T03:02:22;14.60;99.90
8420;DHT22;4247;48.550;8.822;2023-06-24T03:04:50;14.60;99.90
8420;DHT22;4247;48.550;8.822;2023-06-24T03:07:17;14.60;99.90
8420;DHT22;4247;48.550;8.822;2023-06-24T03:09:46;14.70;99.90
8420;DHT22;4247;48.550;8.822;2023-06-24T03:12:13;14.60;99.90
8420;DHT22;4247;48.550;8.822;2023-06-24T03:14:41;14.60;99.90
8420;DHT22;4247;48.550;8.822;2023-06-24T03:17:08;14.60;99.90
8420;DHT22;4247;48.550;8.822;2023-06-24T03:19:34;14.50;99.90
8420;DHT22;4247;48.550;8.822;2023-06-24T03:22:01;14.50;99.90
8420;DHT22;4247;48.550;8.822;2023-06-24T03:24:28;14.50;99.90
8420;DHT22;4247;48.550;8.822;2023-06-24T03:26:55;14.50;99.90
8420;DHT22;4247;48.550;8.822;2023-06-24T03:29:22;14.50;99.90
8420;DHT22;4247;48.550;8.822;2023-06-24T03:31:50;14.50;99.90
8420;DHT22;4247;48.550;8.822;2023-06-24T03:34:17;14.50;99.90
8420;DHT22;4247;48.550;8.822;2023-06-24T03:36:44;14.50;99.90
8420;DHT22;4247;48.550;8.822;2023-06-24T03:39:10;14.60;99.90
8420;DHT22;4247;48.550;8.822;2023-06-24T03:41:37;14.60;99.90
8420;DHT22;4247;48.550;8.822;2023-06-24T03:44:04;14.70;99.90
8420;DHT22;4247;48.550;8.822;2023-06-24T03:46:31;14.70;99.90
8420;DHT22;4247;48.550;8.822;2023-06-24T03:48:59;14.70;99.90
8420;DHT22;4247;48.550;8.822;2023-06-24T03:51:26;14.70;99.90
8420;DHT22;4247;48.550;8.822;2023-06-24T03:53:53;14.80;99.90
8420;DHT22;4247;48.550;8.822;2023-06-24T03:56:20;14.90;99.90
8420;DHT22;4247;48.550;8.822;2023-06-24T03:58:46;14.90;99.90
8420;DHT22;4247;48.550;8.822;2023-06-24T04:01:13;15.00;99.90
8420;DHT22;4247;48.550;8.822;2023-06-24T04:03:40;15.00;99.90
8420;DHT22;4247;48.550;8.822;2023-06-24T04:06:08;15.00;99.90
8420;DHT22;4247;48.550;8.822;2023-06-24T04:08:34;15.00;99.90
8420;DHT22;4247;48.550;8.822;2023-06-24T04:11:05;15.10;99.90
8420;DHT22;4247;48.550;8.822;2023-06-24T04:13:32;15.10;99.90
8420;DHT22;4247;48.550;8.822;2023-06-24T04:15:58;15.20;99.90
8420;DHT22;4247;48.550;8.822;2023-06-24T04:18:25;15.30;99.90
8420;DHT22;4247;48.550;8.822;2023-06-24T04:20:52;15.30;99.90
8420;DHT22;4247;48.550;8.822;2023-06-24T04:23:20;15.40;99.90
8420;DHT22;4247;48.550;8.822;2023-06-24T04:25:46;15.40;99.90
8420;DHT22;4247;48.550;8.822;2023-06-24T04:28:13;15.50;99.90
8420;DHT22;4247;48.550;8.822;2023-06-24T04:30:40;15.60;99.90
8420;DHT22;4247;48.550;8.822;2023-06-24T04:33:07;15.60;99.90
8420;DHT22;4247;48.550;8.822;2023-06-24T04:35:34;15.70;99.90
8420;DHT22;4247;48.550;8.822;2023-06-24T04:38:01;15.80;99.90
8420;DHT22;4247;48.550;8.822;2023-06-24T04:40:29;16.10;99.90
8420;DHT22;4247;48.550;8.822;2023-06-24T04:42:56;16.40;99.90
8420;DHT22;4247;48.550;8.822;2023-06-24T04:45:22;16.70;99.90
8420;DHT22;4247;48.550;8.822;2023-06-24T04:47:49;16.70;99.90
8420;DHT22;4247;48.550;8.822;2023-06-24T04:50:16;16.90;99.90
8420;DHT22;4247;48.550;8.822;2023-06-24T04:52:42;17.00;99.90
8420;DHT22;4247;48.550;8.822;2023-06-24T04:55:10;16.90;99.90
8420;DHT22;4247;48.550;8.822;2023-06-24T04:57:38;16.70;99.90
8420;DHT22;4247;48.550;8.822;2023-06-24T05:00:07;16.80;99.90
8420;DHT22;4247;48.550;8.822;2023-06-24T05:02:34;16.80;99.90
8420;DHT22;4247;48.550;8.822;2023-06-24T05:05:01;16.80;99.90
8420;DHT22;4247;48.550;8.822;2023-06-24T05:07:28;16.80;99.90
8420;DHT22;4247;48.550;8.822;2023-06-24T05:09:55;16.60;99.90
8420;DHT22;4247;48.550;8.822;2023-06-24T05:12:22;16.60;99.90
8420;DHT22;4247;48.550;8.822;2023-06-24T05:14:51;16.60;99.90
8420;DHT22;4247;48.550;8.822;2023-06-24T05:17:18;16.60;99.90
8420;DHT22;4247;48.550;8.822;2023-06-24T05:19:45;16.60;99.90
8420;DHT22;4247;48.550;8.822;2023-06-24T05:22:12;16.70;99.90
8420;DHT22;4247;48.550;8.822;2023-06-24T05:24:38;16.80;99.90
8420;DHT22;4247;48.550;8.822;2023-06-24T05:27:07;16.80;99.90
8420;DHT22;4247;48.550;8.822;2023-06-24T05:29:34;16.90;99.90
8420;DHT22;4247;48.550;8.822;2023-06-24T05:32:03;17.10;99.90
8420;DHT22;4247;48.550;8.822;2023-06-24T05:34:30;17.20;99.90
8420;DHT22;4247;48.550;8.822;2023-06-24T05:36:56;17.30;99.90
8420;DHT22;4247;48.550;8.822;2023-06-24T05:39:24;17.30;99.90
8420;DHT22;4247;48.550;8.822;2023-06-24T05:41:51;17.30;99.90
8420;DHT22;4247;48.550;8.822;2023-06-24T05:44:17;17.30;99.90
8420;DHT22;4247;48.550;8.822;2023-06-24T05:46:44;17.40;99.90
8420;DHT22;4247;48.550;8.822;2023-06-24T05:49:12;17.60;99.90
8420;DHT22;4247;48.550;8.822;2023-06-24T05:51:39;17.70;99.90
8420;DHT22;4247;48.550;8.822;2023-06-24T05:54:06;17.80;99.90
8420;DHT22;4247;48.550;8.822;2023-06-24T05:56:33;17.90;99.90
8420;DHT22;4247;48.550;8.822;2023-06-24T05:59:01;18.00;99.90
8420;DHT22;4247;48.550;8.822;2023-06-24T06:01:28;18.20;99.90
8420;DHT22;4247;48.550;8.822;2023-06-24T06:03:55;18.30;99.90
8420;DHT22;4247;48.550;8.822;2023-06-24T06:06:23;18.40;99.90
8420;DHT22;4247;48.550;8.822;2023-06-24T06:08:49;18.50;99.90
8420;DHT22;4247;48.550;8.822;2023-06-24T06:11:16;18.60;99.90
8420;DHT22;4247;48.550;8.822;2023-06-24T06:13:43;18.70;99.90
8420;DHT22;4247;48.550;8.822;2023-06-24T06:16:09;18.80;99.90
8420;DHT22;4247;48.550;8.822;2023-06-24T06:18:36;18.90;99.90
8420;DHT22;4247;48.550;8.822;2023-06-24T06:21:03;19.00;99.90
8420;DHT22;4247;48.550;8.822;2023-06-24T06:23:31;19.20;99.90
8420;DHT22;4247;48.550;8.822;2023-06-24T06:25:58;19.20;99.90
8420;DHT22;4247;48.550;8.822;2023-06-24T06:28:24;19.30;99.90
8420;DHT22;4247;48.550;8.822;2023-06-24T06:30:51;19.40;99.90
8420;DHT22;4247;48.550;8.822;2023-06-24T06:33:18;19.50;99.90
8420;DHT22;4247;48.550;8.822;2023-06-24T06:35:44;19.70;99.90
8420;DHT22;4247;48.550;8.822;2023-06-24T06:38:11;19.70;99.90
8420;DHT22;4247;48.550;8.822;2023-06-24T06:40:39;19.80;99.90
8420;DHT22;4247;48.550;8.822;2023-06-24T06:43:06;19.90;99.90
8420;DHT22;4247;48.550;8.822;2023-06-24T06:45:32;19.90;99.90
8420;DHT22;4247;48.550;8.822;2023-06-24T06:47:59;20.10;99.90
8420;DHT22;4247;48.550;8.822;2023-06-24T06:50:26;20.20;99.90
8420;DHT22;4247;48.550;8.822;2023-06-24T06:52:53;20.30;99.90
8420;DHT22;4247;48.550;8.822;2023-06-24T06:55:19;20.40;99.90
8420;DHT22;4247;48.550;8.822;2023-06-24T06:57:47;20.60;99.90
8420;DHT22;4247;48.550;8.822;2023-06-24T07:00:15;20.60;99.90
8420;DHT22;4247;48.550;8.822;2023-06-24T07:02:41;20.60;99.90
8420;DHT22;4247;48.550;8.822;2023-06-24T07:05:08;20.70;99.90
8420;DHT22;4247;48.550;8.822;2023-06-24T07:07:37;20.70;99.90
8420;DHT22;4247;48.550;8.822;2023-06-24T07:10:04;20.80;99.90
8420;DHT22;4247;48.550;8.822;2023-06-24T07:12:31;20.90;99.90
8420;DHT22;4247;48.550;8.822;2023-06-24T07:14:59;20.90;99.90
8420;DHT22;4247;48.550;8.822;2023-06-24T07:17:26;21.00;99.90
8420;DHT22;4247;48.550;8.822;2023-06-24T07:19:52;21.10;99.90
8420;DHT22;4247;48.550;8.822;2023-06-24T07:22:19;21.20;99.90
8420;DHT22;4247;48.550;8.822;2023-06-24T07:24:46;21.50;99.70
8420;DHT22;4247;48.550;8.822;2023-06-24T07:27:13;21.50;97.80
8420;DHT22;4247;48.550;8.822;2023-06-24T07:29:39;21.70;97.90
8420;DHT22;4247;48.550;8.822;2023-06-24T07:32:08;22.10;98.40
8420;DHT22;4247;48.550;8.822;2023-06-24T07:34:35;22.40;97.90
8420;DHT22;4247;48.550;8.822;2023-06-24T07:37:02;22.70;97.60
8420;DHT22;4247;48.550;8.822;2023-06-24T07:39:29;22.80;95.80
8420;DHT22;4247;48.550;8.822;2023-06-24T07:41:55;23.20;95.60
8420;DHT22;4247;48.550;8.822;2023-06-24T07:44:22;23.70;94.50
8420;DHT22;4247;48.550;8.822;2023-06-24T07:46:49;23.70;94.40
8420;DHT22;4247;48.550;8.822;2023-06-24T07:49:17;24.10;94.50
8420;DHT22;4247;48.550;8.822;2023-06-24T07:51:44;24.40;94.20
8420;DHT22;4247;48.550;8.822;2023-06-24T07:54:11;24.60;94.20
8420;DHT22;4247;48.550;8.822;2023-06-24T07:56:38;24.90;92.20
8420;DHT22;4247;48.550;8.822;2023-06-24T07:59:04;25.10;91.90
8420;DHT22;4247;48.550;8.822;2023-06-24T08:01:31;25.30;90.70
8420;DHT22;4247;48.550;8.822;2023-06-24T08:03:58;25.40;91.60
8420;DHT22;4247;48.550;8.822;2023-06-24T08:06:26;25.70;91.20
8420;DHT22;4247;48.550;8.822;2023-06-24T08:08:52;25.80;90.70
8420;DHT22;4247;48.550;8.822;2023-06-24T08:11:19;25.90;91.30
8420;DHT22;4247;48.550;8.822;2023-06-24T08:13:47;25.90;90.90
8420;DHT22;4247;48.550;8.822;2023-06-24T08:16:16;26.10;90.60
8420;DHT22;4247;48.550;8.822;2023-06-24T08:18:43;25.80;88.10
8420;DHT22;4247;48.550;8.822;2023-06-24T08:21:10;25.70;88.40
8420;DHT22;4247;48.550;8.822;2023-06-24T08:23:38;25.60;90.70
8420;DHT22;4247;48.550;8.822;2023-06-24T08:26:06;25.60;88.50
8420;DHT22;4247;48.550;8.822;2023-06-24T08:28:33;25.30;90.40
8420;DHT22;4247;48.550;8.822;2023-06-24T08:31:00;25.30;90.20
8420;DHT22;4247;48.550;8.822;2023-06-24T08:33:26;25.10;90.20
8420;DHT22;4247;48.550;8.822;2023-06-24T08:35:53;25.10;90.40
8420;DHT22;4247;48.550;8.822;2023-06-24T08:38:20;25.10;90.30
8420;DHT22;4247;48.550;8.822;2023-06-24T08:40:49;25.10;90.30
8420;DHT22;4247;48.550;8.822;2023-06-24T08:43:16;24.80;88.60
8420;DHT22;4247;48.550;8.822;2023-06-24T08:45:43;24.90;89.50
8420;DHT22;4247;48.550;8.822;2023-06-24T08:48:10;24.80;89.70
8420;DHT22;4247;48.550;8.822;2023-06-24T08:50:43;24.80;88.40
8420;DHT22;4247;48.550;8.822;2023-06-24T08:53:11;24.90;89.30
8420;DHT22;4247;48.550;8.822;2023-06-24T08:55:40;24.80;89.90
8420;DHT22;4247;48.550;8.822;2023-06-24T08:58:10;24.90;89.40
8420;DHT22;4247;48.550;8.822;2023-06-24T09:00:37;24.90;90.30
8420;DHT22;4247;48.550;8.822;2023-06-24T09:03:04;24.90;90.10
8420;DHT22;4247;48.550;8.822;2023-06-24T09:05:30;24.90;90.10
8420;DHT22;4247;48.550;8.822;2023-06-24T09:07:57;25.00;89.40
8420;DHT22;4247;48.550;8.822;2023-06-24T09:10:32;25.00;89.50
8420;DHT22;4247;48.550;8.822;2023-06-24T09:12:59;25.10;90.80
8420;DHT22;4247;48.550;8.822;2023-06-24T09:15:31;25.20;88.20
8420;DHT22;4247;48.550;8.822;2023-06-24T09:17:58;25.00;85.50
8420;DHT22;4247;48.550;8.822;2023-06-24T09:20:25;24.90;86.10
8420;DHT22;4247;48.550;8.822;2023-06-24T09:22:57;24.80;85.30
8420;DHT22;4247;48.550;8.822;2023-06-24T09:25:24;24.70;87.00
8420;DHT22;4247;48.550;8.822;2023-06-24T09:27:51;24.80;89.70
8420;DHT22;4247;48.550;8.822;2023-06-24T09:30:19;24.90;87.90
8420;DHT22;4247;48.550;8.822;2023-06-24T09:32:47;24.90;86.30
8420;DHT22;4247;48.550;8.822;2023-06-24T09:35:14;24.80;85.00
8420;DHT22;4247;48.550;8.822;2023-06-24T09:37:43;24.80;85.70
8420;DHT22;4247;48.550;8.822;2023-06-24T09:40:10;24.80;84.60
8420;DHT22;4247;48.550;8.822;2023-06-24T09:42:37;24.90;86.20
8420;DHT22;4247;48.550;8.822;2023-06-24T09:45:07;24.90;83.10
8420;DHT22;4247;48.550;8.822;2023-06-24T09:47:34;24.90;85.30
8420;DHT22;4247;48.550;8.822;2023-06-24T09:50:02;24.90;86.90
8420;DHT22;4247;48.550;8.822;2023-06-24T09:52:29;24.90;84.90
8420;DHT22;4247;48.550;8.822;2023-06-24T09:54:58;24.90;85.90
8420;DHT22;4247;48.550;8.822;2023-06-24T09:57:29;24.80;82.00
8420;DHT22;4247;48.550;8.822;2023-06-24T09:59:58;24.70;82.50
8420;DHT22;4247;48.550;8.822;2023-06-24T10:02:25;24.70;82.60
8420;DHT22;4247;48.550;8.822;2023-06-24T10:04:52;24.80;81.90
8420;DHT22;4247;48.550;8.822;2023-06-24T10:07:22;24.80;83.10
8420;DHT22;4247;48.550;8.822;2023-06-24T10:09:49;24.80;82.40
8420;DHT22;4247;48.550;8.822;2023-06-24T10:12:16;24.90;84.30
8420;DHT22;4247;48.550;8.822;2023-06-24T10:14:42;24.90;83.00
8420;DHT22;4247;48.550;8.822;2023-06-24T10:17:11;25.00;84.70
8420;DHT22;4247;48.550;8.822;2023-06-24T10:19:39;25.00;83.90
8420;DHT22;4247;48.550;8.822;2023-06-24T10:22:10;25.10;83.80
8420;DHT22;4247;48.550;8.822;2023-06-24T10:24:40;25.10;82.20
8420;DHT22;4247;48.550;8.822;2023-06-24T10:27:09;25.00;83.80
8420;DHT22;4247;48.550;8.822;2023-06-24T10:29:36;25.00;83.00
8420;DHT22;4247;48.550;8.822;2023-06-24T10:32:06;25.00;82.20
8420;DHT22;4247;48.550;8.822;2023-06-24T10:34:41;25.00;82.40
8420;DHT22;4247;48.550;8.822;2023-06-24T10:37:11;24.90;79.10
8420;DHT22;4247;48.550;8.822;2023-06-24T10:39:50;24.80;82.70
8420;DHT22;4247;48.550;8.822;2023-06-24T10:42:36;24.90;82.20
8420;DHT22;4247;48.550;8.822;2023-06-24T10:45:17;24.90;81.50
8420;DHT22;4247;48.550;8.822;2023-06-24T10:47:45;24.90;80.40
8420;DHT22;4247;48.550;8.822;2023-06-24T10:50:14;25.00;83.50
8420;DHT22;4247;48.550;8.822;2023-06-24T10:52:42;25.10;81.70
8420;DHT22;4247;48.550;8.822;2023-06-24T10:55:13;25.10;82.30
8420;DHT22;4247;48.550;8.822;2023-06-24T10:57:40;25.10;80.00
8420;DHT22;4247;48.550;8.822;2023-06-24T11:00:07;25.00;81.70
8420;DHT22;4247;48.550;8.822;2023-06-24T11:02:34;25.00;81.10
8420;DHT22;4247;48.550;8.822;2023-06-24T11:05:03;25.00;81.50
8420;DHT22;4247;48.550;8.822;2023-06-24T11:07:31;25.00;81.60
8420;DHT22;4247;48.550;8.822;2023-06-24T11:10:02;25.00;82.40
8420;DHT22;4247;48.550;8.822;2023-06-24T11:12:32;25.00;81.60
8420;DHT22;4247;48.550;8.822;2023-06-24T11:15:01;24.90;82.00
8420;DHT22;4247;48.550;8.822;2023-06-24T11:17:28;24.90;80.30
8420;DHT22;4247;48.550;8.822;2023-06-24T11:19:55;25.10;83.70
8420;DHT22;4247;48.550;8.822;2023-06-24T11:22:23;25.00;78.90
8420;DHT22;4247;48.550;8.822;2023-06-24T11:24:50;24.80;79.10
8420;DHT22;4247;48.550;8.822;2023-06-24T11:27:19;24.70;77.70
8420;DHT22;4247;48.550;8.822;2023-06-24T11:29:51;24.50;78.70
8420;DHT22;4247;48.550;8.822;2023-06-24T11:32:18;24.40;78.60
8420;DHT22;4247;48.550;8.822;2023-06-24T11:34:46;24.30;77.30
8420;DHT22;4247;48.550;8.822;2023-06-24T11:37:13;24.20;79.10
8420;DHT22;4247;48.550;8.822;2023-06-24T11:39:40;24.30;80.80
8420;DHT22;4247;48.550;8.822;2023-06-24T11:42:08;24.30;76.90
8420;DHT22;4247;48.550;8.822;2023-06-24T11:44:35;24.40;77.90
8420;DHT22;4247;48.550;8.822;2023-06-24T11:47:08;24.30;77.40
8420;DHT22;4247;48.550;8.822;2023-06-24T11:49:48;24.40;77.20
8420;DHT22;4247;48.550;8.822;2023-06-24T11:52:15;24.50;78.40
8420;DHT22;4247;48.550;8.822;2023-06-24T11:54:42;24.70;78.70
8420;DHT22;4247;48.550;8.822;2023-06-24T11:57:09;24.70;75.40
8420;DHT22;4247;48.550;8.822;2023-06-24T11:59:38;24.70;79.60
8420;DHT22;4247;48.550;8.822;2023-06-24T12:02:06;24.80;79.60
8420;DHT22;4247;48.550;8.822;2023-06-24T12:04:33;24.90;77.40
8420;DHT22;4247;48.550;8.822;2023-06-24T12:07:00;25.00;76.40
8420;DHT22;4247;48.550;8.822;2023-06-24T12:09:28;24.90;77.10
8420;DHT22;4247;48.550;8.822;2023-06-24T12:11:55;25.00;78.80
8420;DHT22;4247;48.550;8.822;2023-06-24T12:14:21;24.90;74.20
8420;DHT22;4247;48.550;8.822;2023-06-24T12:16:48;24.90;75.50
8420;DHT22;4247;48.550;8.822;2023-06-24T12:19:16;24.90;75.40
8420;DHT22;4247;48.550;8.822;2023-06-24T12:21:43;24.80;73.70
8420;DHT22;4247;48.550;8.822;2023-06-24T12:24:10;24.80;77.40
8420;DHT22;4247;48.550;8.822;2023-06-24T12:26:38;24.90;74.80
8420;DHT22;4247;48.550;8.822;2023-06-24T12:29:05;24.80;76.10
8420;DHT22;4247;48.550;8.822;2023-06-24T12:31:32;24.80;75.70
8420;DHT22;4247;48.550;8.822;2023-06-24T12:33:59;24.90;75.80
8420;DHT22;4247;48.550;8.822;2023-06-24T12:36:27;24.80;75.10
8420;DHT22;4247;48.550;8.822;2023-06-24T12:38:54;24.70;73.00
8420;DHT22;4247;48.550;8.822;2023-06-24T12:41:21;24.70;76.30
8420;DHT22;4247;48.550;8.822;2023-06-24T12:43:48;24.80;75.20
8420;DHT22;4247;48.550;8.822;2023-06-24T12:46:14;24.70;71.70
8420;DHT22;4247;48.550;8.822;2023-06-24T12:48:41;24.60;71.80
8420;DHT22;4247;48.550;8.822;2023-06-24T12:51:09;24.60;72.60
8420;DHT22;4247;48.550;8.822;2023-06-24T12:53:37;24.60;69.50
8420;DHT22;4247;48.550;8.822;2023-06-24T12:56:04;24.50;72.80
8420;DHT22;4247;48.550;8.822;2023-06-24T12:58:31;24.50;71.90
8420;DHT22;4247;48.550;8.822;2023-06-24T13:00:57;24.50;72.20
8420;DHT22;4247;48.550;8.822;2023-06-24T13:03:24;24.60;72.40
8420;DHT22;4247;48.550;8.822;2023-06-24T13:05:51;24.60;72.00
8420;DHT22;4247;48.550;8.822;2023-06-24T13:08:17;24.60;72.30
8420;DHT22;4247;48.550;8.822;2023-06-24T13:10:45;24.60;72.10
8420;DHT22;4247;48.550;8.822;2023-06-24T13:13:12;24.60;70.70
8420;DHT22;4247;48.550;8.822;2023-06-24T13:15:39;24.60;71.10
8420;DHT22;4247;48.550;8.822;2023-06-24T13:18:06;24.50;71.10
8420;DHT22;4247;48.550;8.822;2023-06-24T13:20:33;24.60;72.20
8420;DHT22;4247;48.550;8.822;2023-06-24T13:22:59;24.70;73.00
8420;DHT22;4247;48.550;8.822;2023-06-24T13:25:26;24.70;70.20
8420;DHT22;4247;48.550;8.822;2023-06-24T13:27:54;24.80;71.80
8420;DHT22;4247;48.550;8.822;2023-06-24T13:30:21;24.80;72.80
8420;DHT22;4247;48.550;8.822;2023-06-24T13:32:48;24.90;71.00
8420;DHT22;4247;48.550;8.822;2023-06-24T13:35:15;24.90;71.50
8420;DHT22;4247;48.550;8.822;2023-06-24T13:37:42;25.00;72.80
8420;DHT22;4247;48.550;8.822;2023-06-24T13:40:10;25.00;73.30
8420;DHT22;4247;48.550;8.822;2023-06-24T13:42:37;24.90;68.60
8420;DHT22;4247;48.550;8.822;2023-06-24T13:45:06;24.90;71.20
8420;DHT22;4247;48.550;8.822;2023-06-24T13:47:33;24.90;70.30
8420;DHT22;4247;48.550;8.822;2023-06-24T13:50:00;24.90;68.90
8420;DHT22;4247;48.550;8.822;2023-06-24T13:52:27;24.80;69.00
8420;DHT22;4247;48.550;8.822;2023-06-24T13:54:54;24.90;70.70
8420;DHT22;4247;48.550;8.822;2023-06-24T13:57:21;24.90;69.30
8420;DHT22;4247;48.550;8.822;2023-06-24T13:59:48;25.00;68.70
8420;DHT22;4247;48.550;8.822;2023-06-24T14:02:16;24.90;68.10
8420;DHT22;4247;48.550;8.822;2023-06-24T14:04:44;24.90;69.90
8420;DHT22;4247;48.550;8.822;2023-06-24T14:07:11;24.90;67.80
8420;DHT22;4247;48.550;8.822;2023-06-24T14:09:38;24.80;66.60
8420;DHT22;4247;48.550;8.822;2023-06-24T14:12:06;24.80;67.90
8420;DHT22;4247;48.550;8.822;2023-06-24T14:14:34;24.80;67.90
8420;DHT22;4247;48.550;8.822;2023-06-24T14:17:02;24.80;67.90
8420;DHT22;4247;48.550;8.822;2023-06-24T14:19:31;24.80;66.10
8420;DHT22;4247;48.550;8.822;2023-06-24T14:21:57;24.80;66.10
8420;DHT22;4247;48.550;8.822;2023-06-24T14:24:24;24.90;67.40
8420;DHT22;4247;48.550;8.822;2023-06-24T14:26:51;24.90;66.70
8420;DHT22;4247;48.550;8.822;2023-06-24T14:29:18;24.80;65.90
8420;DHT22;4247;48.550;8.822;2023-06-24T14:31:45;24.90;66.20
8420;DHT22;4247;48.550;8.822;2023-06-24T14:34:12;24.80;64.30
8420;DHT22;4247;48.550;8.822;2023-06-24T14:36:40;24.80;64.20
8420;DHT22;4247;48.550;8.822;2023-06-24T14:39:07;24.90;67.40
8420;DHT22;4247;48.550;8.822;2023-06-24T14:41:34;24.90;66.70
8420;DHT22;4247;48.550;8.822;2023-06-24T14:44:01;24.90;66.10
8420;DHT22;4247;48.550;8.822;2023-06-24T14:46:28;24.90;66.70
8420;DHT22;4247;48.550;8.822;2023-06-24T14:48:54;24.90;64.70
8420;DHT22;4247;48.550;8.822;2023-06-24T14:51:21;24.90;65.50
8420;DHT22;4247;48.550;8.822;2023-06-24T14:53:50;24.90;65.60
8420;DHT22;4247;48.550;8.822;2023-06-24T14:56:16;24.90;66.70
8420;DHT22;4247;48.550;8.822;2023-06-24T14:58:43;24.90;66.90
8420;DHT22;4247;48.550;8.822;2023-06-24T15:01:10;24.90;65.00
8420;DHT22;4247;48.550;8.822;2023-06-24T15:03:36;24.90;66.70
8420;DHT22;4247;48.550;8.822;2023-06-24T15:06:03;24.90;65.20
8420;DHT22;4247;48.550;8.822;2023-06-24T15:08:30;24.90;65.70
8420;DHT22;4247;48.550;8.822;2023-06-24T15:10:58;24.90;67.00
8420;DHT22;4247;48.550;8.822;2023-06-24T15:13:25;25.00;66.70
8420;DHT22;4247;48.550;8.822;2023-06-24T15:15:52;25.00;66.10
8420;DHT22;4247;48.550;8.822;2023-06-24T15:18:21;25.00;66.00
8420;DHT22;4247;48.550;8.822;2023-06-24T15:20:48;25.00;65.70
8420;DHT22;4247;48.550;8.822;2023-06-24T15:23:15;25.00;65.10
8420;DHT22;4247;48.550;8.822;2023-06-24T15:25:42;25.00;64.80
8420;DHT22;4247;48.550;8.822;2023-06-24T15:28:10;25.00;67.20
8420;DHT22;4247;48.550;8.822;2023-06-24T15:30:36;25.00;65.90
8420;DHT22;4247;48.550;8.822;2023-06-24T15:33:03;25.00;65.10
8420;DHT22;4247;48.550;8.822;2023-06-24T15:35:30;25.00;63.70
8420;DHT22;4247;48.550;8.822;2023-06-24T15:37:56;24.90;62.60
8420;DHT22;4247;48.550;8.822;2023-06-24T15:40:23;24.90;65.40
8420;DHT22;4247;48.550;8.822;2023-06-24T15:42:50;24.90;66.00
8420;DHT22;4247;48.550;8.822;2023-06-24T15:45:18;25.00;66.80
8420;DHT22;4247;48.550;8.822;2023-06-24T15:47:46;25.00;66.10
8420;DHT22;4247;48.550;8.822;2023-06-24T15:50:13;25.00;67.50
8420;DHT22;4247;48.550;8.822;2023-06-24T15:52:39;25.10;67.30
8420;DHT22;4247;48.550;8.822;2023-06-24T15:55:07;25.10;68.00
8420;DHT22;4247;48.550;8.822;2023-06-24T15:57:35;25.10;65.90
8420;DHT22;4247;48.550;8.822;2023-06-24T16:00:02;25.10;66.00
8420;DHT22;4247;48.550;8.822;2023-06-24T16:02:30;25.00;64.60
8420;DHT22;4247;48.550;8.822;2023-06-24T16:04:57;25.00;66.70